sensor_id;sensor_type;location;lat;lon;timestamp;temperature;humidity
3846;DHT22;1938;50.812;7.738;2022-10-24T00:00:12;14.50;99.90
3846;DHT22;1938;50.812;7.738;2022-10-24T00:02:37;14.50;99.90
3846;DHT22;1938;50.812;7.738;2022-10-24T00:05:03;14.50;99.90
3846;DHT22;1938;50.812;7.738;2022-10-24T00:07:29;14.50;99.90
3846;DHT22;1938;50.812;7.738;2022-10-24T00:09:55;14.50;99.90
3846;DHT22;1938;50.812;7.738;2022-10-24T00:12:20;14.40;99.90
3846;DHT22;1938;50.812;7.738;2022-10-24T00:14:46;14.50;99.90
3846;DHT22;1938;50.812;7.738;2022-10-24T00:17:11;14.40;99.90
3846;DHT22;1938;50.812;7.738;2022-10-24T00:19:37;14.50;99.90
3846;DHT22;1938;50.812;7.738;2022-10-24T00:22:03;14.50;99.90
3846;DHT22;1938;50.812;7.738;2022-10-24T00:24:28;14.50;99.90
3846;DHT22;1938;50.812;7.738;2022-10-24T00:26:54;14.40;99.90
3846;DHT22;1938;50.812;7.738;2022-10-24T00:29:20;14.40;99.90
3846;DHT22;1938;50.812;7.738;2022-10-24T00:31:45;14.40;99.90
3846;DHT22;1938;50.812;7.738;2022-10-24T00:34:11;14.40;99.90
3846;DHT22;1938;50.812;7.738;2022-10-24T00:36:36;14.30;99.90
3846;DHT22;1938;50.812;7.738;2022-10-24T00:39:02;14.30;99.90
3846;DHT22;1938;50.812;7.738;2022-10-24T00:41:34;14.30;99.90
3846;DHT22;1938;50.812;7.738;2022-10-24T00:44:25;14.30;99.90
3846;DHT22;1938;50.812;7.738;2022-10-24T00:47:06;14.30;99.90
3846;DHT22;1938;50.812;7.738;2022-10-24T00:52:22;14.30;99.90
3846;DHT22;1938;50.812;7.738;2022-10-24T00:54:52;14.30;99.90
3846;DHT22;1938;50.812;7.738;2022-10-24T00:59:56;14.30;99.90
3846;DHT22;1938;50.812;7.738;2022-10-24T01:02:22;14.40;99.90
3846;DHT22;1938;50.812;7.738;2022-10-24T01:04:50;14.30;99.90
3846;DHT22;1938;50.812;7.738;2022-10-24T01:08:02;14.30;99.90
3846;DHT22;1938;50.812;7.738;2022-10-24T01:13:21;14.40;99.90
3846;DHT22;1938;50.812;7.738;2022-10-24T01:18:28;14.40;99.90
3846;DHT22;1938;50.812;7.738;2022-10-24T01:27:20;14.30;99.90
3846;DHT22;1938;50.812;7.738;2022-10-24T01:30:13;14.30;99.90
3846;DHT22;1938;50.812;7.738;2022-10-24T01:33:01;14.40;99.90
3846;DHT22;1938;50.812;7.738;2022-10-24T01:35:27;14.30;99.90
3846;DHT22;1938;50.812;7.738;2022-10-24T01:41:06;14.30;99.90
3846;DHT22;1938;50.812;7.738;2022-10-24T01:44:07;14.30;99.90
3846;DHT22;1938;50.812;7.738;2022-10-24T01:46:39;14.30;99.90
3846;DHT22;1938;50.812;7.738;2022-10-24T01:49:18;14.30;99.90
3846;DHT22;1938;50.812;7.738;2022-10-24T01:51:46;14.40;99.90
3846;DHT22;1938;50.812;7.738;2022-10-24T01:54:13;14.40;99.90
3846;DHT22;1938;50.812;7.738;2022-10-24T01:56:40;14.30;99.90
3846;DHT22;1938;50.812;7.738;2022-10-24T02:02:01;14.30;99.90
3846;DHT22;1938;50.812;7.738;2022-10-24T02:04:30;14.40;99.90
3846;DHT22;1938;50.812;7.738;2022-10-24T02:06:57;14.30;99.90
3846;DHT22;1938;50.812;7.738;2022-10-24T02:09:27;14.30;99.90
3846;DHT22;1938;50.812;7.738;2022-10-24T02:11:56;14.20;99.90
3846;DHT22;1938;50.812;7.738;2022-10-24T02:14:26;14.20;99.90
3846;DHT22;1938;50.812;7.738;2022-10-24T02:16:55;14.40;99.90
3846;DHT22;1938;50.812;7.738;2022-10-24T02:19:21;14.30;99.90
3846;DHT22;1938;50.812;7.738;2022-10-24T02:24:41;14.20;99.90
3846;DHT22;1938;50.812;7.738;2022-10-24T02:27:15;14.30;99.90
3846;DHT22;1938;50.812;7.738;2022-10-24T02:30:20;14.20;99.90
3846;DHT22;1938;50.812;7.738;2022-10-24T02:32:44;14.20;99.90
3846;DHT22;1938;50.812;7.738;2022-10-24T02:35:13;14.20;99.90
3846;DHT22;1938;50.812;7.738;2022-10-24T02:37:43;14.20;99.90
3846;DHT22;1938;50.812;7.738;2022-10-24T02:40:13;14.20;99.90
3846;DHT22;1938;50.812;7.738;2022-10-24T02:42:41;14.30;99.90
3846;DHT22;1938;50.812;7.738;2022-10-24T02:45:09;14.20;99.90
3846;DHT22;1938;50.812;7.738;2022-10-24T02:47:37;14.30;99.90
3846;DHT22;1938;50.812;7.738;2022-10-24T02:50:04;14.20;99.90
3846;DHT22;1938;50.812;7.738;2022-10-24T02:52:30;14.20;99.90
3846;DHT22;1938;50.812;7.738;2022-10-24T02:54:56;14.20;99.90
3846;DHT22;1938;50.812;7.738;2022-10-24T02:57:22;14.20;99.90
3846;DHT22;1938;50.812;7.738;2022-10-24T02:59:49;14.20;99.90
3846;DHT22;1938;50.812;7.738;2022-10-24T03:02:16;14.20;99.90
3846;DHT22;1938;50.812;7.738;2022-10-24T03:04:41;14.30;99.90
3846;DHT22;1938;50.812;7.738;2022-10-24T03:07:07;14.20;99.90
3846;DHT22;1938;50.812;7.738;2022-10-24T03:09:33;14.20;99.90
3846;DHT22;1938;50.812;7.738;2022-10-24T03:11:59;14.20;99.90
3846;DHT22;1938;50.812;7.738;2022-10-24T03:14:25;14.20;99.90
3846;DHT22;1938;50.812;7.738;2022-10-24T03:16:50;14.30;99.90
3846;DHT22;1938;50.812;7.738;2022-10-24T03:19:16;14.30;99.90
3846;DHT22;1938;50.812;7.738;2022-10-24T03:21:41;14.30;99.90
3846;DHT22;1938;50.812;7.738;2022-10-24T03:24:07;14.30;99.90
3846;DHT22;1938;50.812;7.738;2022-10-24T03:26:33;14.30;99.90
3846;DHT22;1938;50.812;7.738;2022-10-24T03:28:59;14.40;99.90
3846;DHT22;1938;50.812;7.738;2022-10-24T03:31:26;14.40;99.90
3846;DHT22;1938;50.812;7.738;2022-10-24T03:33:52;14.40;99.90
3846;DHT22;1938;50.812;7.738;2022-10-24T03:36:18;14.40;99.90
3846;DHT22;1938;50.812;7.738;2022-10-24T03:38:43;14.40;99.90
3846;DHT22;1938;50.812;7.738;2022-10-24T03:41:10;14.50;99.90
3846;DHT22;1938;50.812;7.738;2022-10-24T03:43:35;14.50;99.90
3846;DHT22;1938;50.812;7.738;2022-10-24T03:46:01;14.50;99.90
3846;DHT22;1938;50.812;7.738;2022-10-24T03:48:27;14.50;99.90
3846;DHT22;1938;50.812;7.738;2022-10-24T03:50:52;14.50;99.90
3846;DHT22;1938;50.812;7.738;2022-10-24T03:53:19;14.40;99.90
3846;DHT22;1938;50.812;7.738;2022-10-24T03:55:44;14.50;99.90
3846;DHT22;1938;50.812;7.738;2022-10-24T03:58:10;14.50;96.10
3846;DHT22;1938;50.812;7.738;2022-10-24T04:00:35;14.50;97.90
3846;DHT22;1938;50.812;7.738;2022-10-24T04:03:05;14.50;96.20
3846;DHT22;1938;50.812;7.738;2022-10-24T04:05:32;14.50;91.60
3846;DHT22;1938;50.812;7.738;2022-10-24T04:07:57;14.50;66.00
3846;DHT22;1938;50.812;7.738;2022-10-24T04:10:23;14.60;29.70
3846;DHT22;1938;50.812;7.738;2022-10-24T04:12:49;14.50;16.10
3846;DHT22;1938;50.812;7.738;2022-10-24T04:15:14;14.50;27.50
3846;DHT22;1938;50.812;7.738;2022-10-24T04:17:41;14.50;25.60
3846;DHT22;1938;50.812;7.738;2022-10-24T04:20:07;14.50;29.70
3846;DHT22;1938;50.812;7.738;2022-10-24T04:22:33;14.50;7.60
3846;DHT22;1938;50.812;7.738;2022-10-24T04:24:58;14.50;1.00
3846;DHT22;1938;50.812;7.738;2022-10-24T04:27:24;14.50;1.00
3846;DHT22;1938;50.812;7.738;2022-10-24T04:29:50;14.50;1.00
3846;DHT22;1938;50.812;7.738;2022-10-24T04:32:16;14.50;1.00
3846;DHT22;1938;50.812;7.738;2022-10-24T04:34:42;14.50;1.00
3846;DHT22;1938;50.812;7.738;2022-10-24T04:37:07;14.40;1.00
3846;DHT22;1938;50.812;7.738;2022-10-24T04:39:33;14.50;1.00
3846;DHT22;1938;50.812;7.738;2022-10-24T04:41:58;14.50;99.90
3846;DHT22;1938;50.812;7.738;2022-10-24T04:44:24;14.60;99.90
3846;DHT22;1938;50.812;7.738;2022-10-24T04:46:50;14.60;91.80
3846;DHT22;1938;50.812;7.738;2022-10-24T04:49:15;14.60;37.60
3846;DHT22;1938;50.812;7.738;2022-10-24T04:51:41;14.60;99.90
3846;DHT22;1938;50.812;7.738;2022-10-24T04:54:06;14.70;99.90
3846;DHT22;1938;50.812;7.738;2022-10-24T04:56:33;14.70;38.70
3846;DHT22;1938;50.812;7.738;2022-10-24T04:58:58;14.70;94.60
3846;DHT22;1938;50.812;7.738;2022-10-24T05:01:24;14.70;99.90
3846;DHT22;1938;50.812;7.738;2022-10-24T05:03:49;14.70;99.90
3846;DHT22;1938;50.812;7.738;2022-10-24T05:06:15;14.70;5.80
3846;DHT22;1938;50.812;7.738;2022-10-24T05:08:41;14.70;1.00
3846;DHT22;1938;50.812;7.738;2022-10-24T05:11:07;14.70;1.00
3846;DHT22;1938;50.812;7.738;2022-10-24T05:13:36;14.70;1.00
3846;DHT22;1938;50.812;7.738;2022-10-24T05:16:01;14.70;99.90
3846;DHT22;1938;50.812;7.738;2022-10-24T05:18:27;14.70;99.90
3846;DHT22;1938;50.812;7.738;2022-10-24T05:20:57;14.70;99.90
3846;DHT22;1938;50.812;7.738;2022-10-24T05:23:23;14.70;99.90
3846;DHT22;1938;50.812;7.738;2022-10-24T05:25:49;14.70;1.00
3846;DHT22;1938;50.812;7.738;2022-10-24T05:28:15;14.70;1.00
3846;DHT22;1938;50.812;7.738;2022-10-24T05:30:42;14.70;1.00
3846;DHT22;1938;50.812;7.738;2022-10-24T05:33:10;14.70;1.00
3846;DHT22;1938;50.812;7.738;2022-10-24T05:35:35;14.80;1.00
3846;DHT22;1938;50.812;7.738;2022-10-24T05:38:01;14.80;99.90
3846;DHT22;1938;50.812;7.738;2022-10-24T05:40:27;14.80;99.90
3846;DHT22;1938;50.812;7.738;2022-10-24T05:42:53;14.80;99.90
3846;DHT22;1938;50.812;7.738;2022-10-24T05:45:19;14.80;99.90
3846;DHT22;1938;50.812;7.738;2022-10-24T05:47:45;14.80;99.90
3846;DHT22;1938;50.812;7.738;2022-10-24T05:50:11;14.80;99.90
3846;DHT22;1938;50.812;7.738;2022-10-24T05:52:37;14.90;99.90
3846;DHT22;1938;50.812;7.738;2022-10-24T05:55:05;14.90;99.90
3846;DHT22;1938;50.812;7.738;2022-10-24T05:57:31;14.90;99.90
3846;DHT22;1938;50.812;7.738;2022-10-24T05:59:57;14.90;90.40
3846;DHT22;1938;50.812;7.738;2022-10-24T06:02:23;14.90;54.90
3846;DHT22;1938;50.812;7.738;2022-10-24T06:04:49;15.00;1.00
3846;DHT22;1938;50.812;7.738;2022-10-24T06:07:16;15.00;99.90
3846;DHT22;1938;50.812;7.738;2022-10-24T06:09:42;15.00;99.90
3846;DHT22;1938;50.812;7.738;2022-10-24T06:12:09;15.00;99.90
3846;DHT22;1938;50.812;7.738;2022-10-24T06:14:36;15.00;99.90
3846;DHT22;1938;50.812;7.738;2022-10-24T06:17:02;15.00;99.90
3846;DHT22;1938;50.812;7.738;2022-10-24T06:19:30;15.00;99.90
3846;DHT22;1938;50.812;7.738;2022-10-24T06:21:55;15.00;53.20
3846;DHT22;1938;50.812;7.738;2022-10-24T06:24:21;15.00;1.70
3846;DHT22;1938;50.812;7.738;2022-10-24T06:26:47;15.00;1.00
3846;DHT22;1938;50.812;7.738;2022-10-24T06:29:13;15.10;1.00
3846;DHT22;1938;50.812;7.738;2022-10-24T06:31:38;15.10;1.00
3846;DHT22;1938;50.812;7.738;2022-10-24T06:34:04;15.10;1.00
3846;DHT22;1938;50.812;7.738;2022-10-24T06:36:30;15.10;1.00
3846;DHT22;1938;50.812;7.738;2022-10-24T06:38:55;15.10;28.00
3846;DHT22;1938;50.812;7.738;2022-10-24T06:41:22;15.10;38.90
3846;DHT22;1938;50.812;7.738;2022-10-24T06:43:47;15.10;43.00
3846;DHT22;1938;50.812;7.738;2022-10-24T06:46:16;15.20;1.00
3846;DHT22;1938;50.812;7.738;2022-10-24T06:48:41;15.20;55.90
3846;DHT22;1938;50.812;7.738;2022-10-24T06:51:08;15.20;99.90
3846;DHT22;1938;50.812;7.738;2022-10-24T06:53:35;15.20;43.00
3846;DHT22;1938;50.812;7.738;2022-10-24T06:56:02;15.20;35.90
3846;DHT22;1938;50.812;7.738;2022-10-24T06:58:32;15.20;9.40
3846;DHT22;1938;50.812;7.738;2022-10-24T07:00:58;15.30;99.90
3846;DHT22;1938;50.812;7.738;2022-10-24T07:03:24;15.40;99.90
3846;DHT22;1938;50.812;7.738;2022-10-24T07:05:49;15.40;99.90
3846;DHT22;1938;50.812;7.738;2022-10-24T07:08:15;15.50;99.90
3846;DHT22;1938;50.812;7.738;2022-10-24T07:10:40;15.50;99.90
3846;DHT22;1938;50.812;7.738;2022-10-24T07:13:06;15.60;99.90
3846;DHT22;1938;50.812;7.738;2022-10-24T07:15:31;15.70;21.20
3846;DHT22;1938;50.812;7.738;2022-10-24T07:17:57;15.80;1.00
3846;DHT22;1938;50.812;7.738;2022-10-24T07:20:23;15.90;1.00
3846;DHT22;1938;50.812;7.738;2022-10-24T07:22:48;15.90;99.90
3846;DHT22;1938;50.812;7.738;2022-10-24T07:25:14;16.00;99.90
3846;DHT22;1938;50.812;7.738;2022-10-24T07:27:40;16.00;99.90
3846;DHT22;1938;50.812;7.738;2022-10-24T07:30:07;16.00;99.90
3846;DHT22;1938;50.812;7.738;2022-10-24T07:32:33;16.00;99.90
3846;DHT22;1938;50.812;7.738;2022-10-24T07:34:59;16.10;99.90
3846;DHT22;1938;50.812;7.738;2022-10-24T07:37:24;16.10;99.90
3846;DHT22;1938;50.812;7.738;2022-10-24T07:39:51;16.10;99.90
3846;DHT22;1938;50.812;7.738;2022-10-24T07:42:17;16.10;99.90
3846;DHT22;1938;50.812;7.738;2022-10-24T07:44:44;16.10;99.90
3846;DHT22;1938;50.812;7.738;2022-10-24T07:47:10;16.20;99.90
3846;DHT22;1938;50.812;7.738;2022-10-24T07:49:37;16.30;41.30
3846;DHT22;1938;50.812;7.738;2022-10-24T07:52:04;16.40;82.80
3846;DHT22;1938;50.812;7.738;2022-10-24T07:54:30;16.60;1.00
3846;DHT22;1938;50.812;7.738;2022-10-24T07:56:55;16.60;1.00
3846;DHT22;1938;50.812;7.738;2022-10-24T07:59:21;16.80;99.90
3846;DHT22;1938;50.812;7.738;2022-10-24T08:01:46;16.90;99.90
3846;DHT22;1938;50.812;7.738;2022-10-24T08:04:12;17.10;99.90
3846;DHT22;1938;50.812;7.738;2022-10-24T08:06:38;17.10;99.90
3846;DHT22;1938;50.812;7.738;2022-10-24T08:09:05;17.20;99.90
3846;DHT22;1938;50.812;7.738;2022-10-24T08:11:31;17.20;56.90
3846;DHT22;1938;50.812;7.738;2022-10-24T08:13:57;17.20;36.70
3846;DHT22;1938;50.812;7.738;2022-10-24T08:16:24;17.10;82.20
3846;DHT22;1938;50.812;7.738;2022-10-24T08:18:51;17.10;35.80
3846;DHT22;1938;50.812;7.738;2022-10-24T08:21:19;17.10;11.80
3846;DHT22;1938;50.812;7.738;2022-10-24T08:23:47;17.20;53.30
3846;DHT22;1938;50.812;7.738;2022-10-24T08:26:16;17.20;71.70
3846;DHT22;1938;50.812;7.738;2022-10-24T08:28:42;17.20;93.90
3846;DHT22;1938;50.812;7.738;2022-10-24T08:31:14;17.20;93.80
3846;DHT22;1938;50.812;7.738;2022-10-24T08:33:40;17.20;24.40
3846;DHT22;1938;50.812;7.738;2022-10-24T08:36:13;17.30;28.50
3846;DHT22;1938;50.812;7.738;2022-10-24T08:38:40;17.20;1.00
3846;DHT22;1938;50.812;7.738;2022-10-24T08:41:05;17.30;1.00
3846;DHT22;1938;50.812;7.738;2022-10-24T08:43:31;17.30;12.50
3846;DHT22;1938;50.812;7.738;2022-10-24T08:49:08;17.50;7.70
3846;DHT22;1938;50.812;7.738;2022-10-24T08:51:44;17.70;1.00
3846;DHT22;1938;50.812;7.738;2022-10-24T08:54:16;17.90;1.00
3846;DHT22;1938;50.812;7.738;2022-10-24T08:56:43;18.20;1.00
3846;DHT22;1938;50.812;7.738;2022-10-24T08:59:10;18.40;99.90
3846;DHT22;1938;50.812;7.738;2022-10-24T09:01:42;18.50;99.90
3846;DHT22;1938;50.812;7.738;2022-10-24T09:04:13;18.60;99.90
3846;DHT22;1938;50.812;7.738;2022-10-24T09:06:40;18.70;99.90
3846;DHT22;1938;50.812;7.738;2022-10-24T09:17:19;19.10;93.90
3846;DHT22;1938;50.812;7.738;2022-10-24T09:22:31;19.70;35.10
3846;DHT22;1938;50.812;7.738;2022-10-24T09:25:05;19.70;15.80
3846;DHT22;1938;50.812;7.738;2022-10-24T09:27:34;19.60;1.00
3846;DHT22;1938;50.812;7.738;2022-10-24T09:30:00;19.50;1.00
3846;DHT22;1938;50.812;7.738;2022-10-24T09:32:29;19.60;1.00
3846;DHT22;1938;50.812;7.738;2022-10-24T09:34:58;19.70;1.00
3846;DHT22;1938;50.812;7.738;2022-10-24T09:37:45;19.90;1.00
3846;DHT22;1938;50.812;7.738;2022-10-24T09:45:40;20.30;1.00
3846;DHT22;1938;50.812;7.738;2022-10-24T09:48:21;20.40;1.00
3846;DHT22;1938;50.812;7.738;2022-10-24T09:50:50;20.50;1.00
3846;DHT22;1938;50.812;7.738;2022-10-24T09:53:38;20.40;1.00
3846;DHT22;1938;50.812;7.738;2022-10-24T09:56:14;20.40;1.00
3846;DHT22;1938;50.812;7.738;2022-10-24T09:58:41;20.40;1.00
3846;DHT22;1938;50.812;7.738;2022-10-24T10:03:39;20.60;1.00
3846;DHT22;1938;50.812;7.738;2022-10-24T10:06:19;20.60;1.00
3846;DHT22;1938;50.812;7.738;2022-10-24T10:08:49;20.50;1.00
3846;DHT22;1938;50.812;7.738;2022-10-24T10:11:16;20.40;1.00
3846;DHT22;1938;50.812;7.738;2022-10-24T10:13:49;20.40;1.00
3846;DHT22;1938;50.812;7.738;2022-10-24T10:16:33;20.50;1.00
3846;DHT22;1938;50.812;7.738;2022-10-24T10:19:26;20.60;1.00
3846;DHT22;1938;50.812;7.738;2022-10-24T10:21:58;20.40;1.00
3846;DHT22;1938;50.812;7.738;2022-10-24T10:27:27;20.30;99.90
3846;DHT22;1938;50.812;7.738;2022-10-24T10:36:27;19.80;1.00
3846;DHT22;1938;50.812;7.738;2022-10-24T10:39:27;19.90;1.00
3846;DHT22;1938;50.812;7.738;2022-10-24T10:42:48;19.20;1.00
3846;DHT22;1938;50.812;7.738;2022-10-24T10:50:39;18.10;1.00
3846;DHT22;1938;50.812;7.738;2022-10-24T11:05:01;18.50;7.50
3846;DHT22;1938;50.812;7.738;2022-10-24T11:10:19;18.90;1.00
3846;DHT22;1938;50.812;7.738;2022-10-24T11:12:45;19.30;1.00
3846;DHT22;1938;50.812;7.738;2022-10-24T11:15:22;19.70;1.00
3846;DHT22;1938;50.812;7.738;2022-10-24T11:17:57;19.90;1.00
3846;DHT22;1938;50.812;7.738;2022-10-24T11:20:43;20.20;1.00
3846;DHT22;1938;50.812;7.738;2022-10-24T11:23:22;20.30;99.90
3846;DHT22;1938;50.812;7.738;2022-10-24T11:26:02;20.50;99.90
3846;DHT22;1938;50.812;7.738;2022-10-24T11:28:56;20.50;99.90
3846;DHT22;1938;50.812;7.738;2022-10-24T11:31:48;20.50;99.90
3846;DHT22;1938;50.812;7.738;2022-10-24T11:34:17;20.30;99.90
3846;DHT22;1938;50.812;7.738;2022-10-24T11:36:45;19.40;1.00
3846;DHT22;1938;50.812;7.738;2022-10-24T11:39:23;18.90;1.00
3846;DHT22;1938;50.812;7.738;2022-10-24T11:42:16;18.80;14.10
3846;DHT22;1938;50.812;7.738;2022-10-24T11:50:04;18.30;1.00
3846;DHT22;1938;50.812;7.738;2022-10-24T11:52:36;18.30;1.00
3846;DHT22;1938;50.812;7.738;2022-10-24T11:55:21;18.10;1.00
3846;DHT22;1938;50.812;7.738;2022-10-24T11:57:52;18.00;1.00
3846;DHT22;1938;50.812;7.738;2022-10-24T12:00:24;17.90;1.00
3846;DHT22;1938;50.812;7.738;2022-10-24T12:03:10;17.60;1.00
3846;DHT22;1938;50.812;7.738;2022-10-24T12:05:49;17.50;1.00
3846;DHT22;1938;50.812;7.738;2022-10-24T12:08:44;17.60;1.00
3846;DHT22;1938;50.812;7.738;2022-10-24T12:14:49;17.80;1.00
3846;DHT22;1938;50.812;7.738;2022-10-24T12:19:45;18.10;1.00
3846;DHT22;1938;50.812;7.738;2022-10-24T12:22:19;18.10;1.00
3846;DHT22;1938;50.812;7.738;2022-10-24T12:24:48;18.20;99.90
3846;DHT22;1938;50.812;7.738;2022-10-24T12:27:36;18.30;99.90
3846;DHT22;1938;50.812;7.738;2022-10-24T12:30:23;18.40;1.00
3846;DHT22;1938;50.812;7.738;2022-10-24T12:33:30;18.50;99.90
3846;DHT22;1938;50.812;7.738;2022-10-24T12:35:57;18.50;1.00
3846;DHT22;1938;50.812;7.738;2022-10-24T12:40:54;18.70;99.90
3846;DHT22;1938;50.812;7.738;2022-10-24T12:43:35;18.70;1.00
3846;DHT22;1938;50.812;7.738;2022-10-24T12:51:33;19.00;1.00
3846;DHT22;1938;50.812;7.738;2022-10-24T12:54:03;18.90;1.00
3846;DHT22;1938;50.812;7.738;2022-10-24T12:56:31;19.00;1.00
3846;DHT22;1938;50.812;7.738;2022-10-24T13:01:45;19.00;1.00
3846;DHT22;1938;50.812;7.738;2022-10-24T13:09:55;18.90;1.00
3846;DHT22;1938;50.812;7.738;2022-10-24T13:20:42;18.80;1.00
3846;DHT22;1938;50.812;7.738;2022-10-24T13:23:22;18.90;1.00
3846;DHT22;1938;50.812;7.738;2022-10-24T13:25:54;18.90;1.00
3846;DHT22;1938;50.812;7.738;2022-10-24T13:38:49;18.70;1.00
3846;DHT22;1938;50.812;7.738;2022-10-24T13:41:39;18.70;1.00
3846;DHT22;1938;50.812;7.738;2022-10-24T13:44:23;18.60;1.00
3846;DHT22;1938;50.812;7.738;2022-10-24T13:46:59;18.50;1.00
3846;DHT22;1938;50.812;7.738;2022-10-24T13:49:37;18.60;1.00
3846;DHT22;1938;50.812;7.738;2022-10-24T13:52:13;18.60;1.00
3846;DHT22;1938;50.812;7.738;2022-10-24T13:54:44;18.50;1.00
3846;DHT22;1938;50.812;7.738;2022-10-24T13:57:30;18.40;1.00
3846;DHT22;1938;50.812;7.738;2022-10-24T14:00:00;18.30;1.00
3846;DHT22;1938;50.812;7.738;2022-10-24T14:02:31;18.30;1.00
3846;DHT22;1938;50.812;7.738;2022-10-24T14:05:00;18.30;1.00
3846;DHT22;1938;50.812;7.738;2022-10-24T14:07:28;18.30;1.00
3846;DHT22;1938;50.812;7.738;2022-10-24T14:10:07;18.30;1.00
3846;DHT22;1938;50.812;7.738;2022-10-24T14:12:33;18.40;1.00
3846;DHT22;1938;50.812;7.738;2022-10-24T14:15:00;18.40;1.00
3846;DHT22;1938;50.812;7.738;2022-10-24T14:17:32;18.30;1.00
3846;DHT22;1938;50.812;7.738;2022-10-24T14:22:40;18.20;1.00
3846;DHT22;1938;50.812;7.738;2022-10-24T14:25:30;18.10;1.00
3846;DHT22;1938;50.812;7.738;2022-10-24T14:28:16;18.00;1.00
3846;DHT22;1938;50.812;7.738;2022-10-24T14:30:54;18.00;1.00
3846;DHT22;1938;50.812;7.738;2022-10-24T14:33:29;17.90;1.00
3846;DHT22;1938;50.812;7.738;2022-10-24T14:35:57;17.90;1.00
3846;DHT22;1938;50.812;7.738;2022-10-24T14:38:23;17.80;1.00
3846;DHT22;1938;50.812;7.738;2022-10-24T14:40:51;17.80;1.00
3846;DHT22;1938;50.812;7.738;2022-10-24T14:43:24;17.80;1.00
3846;DHT22;1938;50.812;7.738;2022-10-24T14:46:32;17.70;1.00
3846;DHT22;1938;50.812;7.738;2022-10-24T14:51:49;17.60;1.00
3846;DHT22;1938;50.812;7.738;2022-10-24T14:54:25;17.60;1.00
3846;DHT22;1938;50.812;7.738;2022-10-24T14:56:51;17.60;1.00
3846;DHT22;1938;50.812;7.738;2022-10-24T15:01:55;17.60;1.00
3846;DHT22;1938;50.812;7.738;2022-10-24T15:04:39;17.60;1.00
3846;DHT22;1938;50.812;7.738;2022-10-24T15:07:29;17.60;1.00
3846;DHT22;1938;50.812;7.738;2022-10-24T15:12:40;17.60;1.00
3846;DHT22;1938;50.812;7.738;2022-10-24T15:15:28;17.50;1.00
3846;DHT22;1938;50.812;7.738;2022-10-24T15:18:18;17.40;1.00
3846;DHT22;1938;50.812;7.738;2022-10-24T15:20:46;17.30;23.40
3846;DHT22;1938;50.812;7.738;2022-10-24T15:23:28;17.30;17.50
3846;DHT22;1938;50.812;7.738;2022-10-24T15:29:05;17.10;38.00
3846;DHT22;1938;50.812;7.738;2022-10-24T15:31:34;17.10;54.30
3846;DHT22;1938;50.812;7.738;2022-10-24T15:34:01;17.10;46.80
3846;DHT22;1938;50.812;7.738;2022-10-24T15:36:29;17.10;57.50
3846;DHT22;1938;50.812;7.738;2022-10-24T15:39:04;17.10;73.70
3846;DHT22;1938;50.812;7.738;2022-10-24T15:41:31;17.00;85.70
3846;DHT22;1938;50.812;7.738;2022-10-24T15:43:57;17.00;93.10
3846;DHT22;1938;50.812;7.738;2022-10-24T15:46:23;17.00;79.10
3846;DHT22;1938;50.812;7.738;2022-10-24T15:48:49;16.90;91.60
3846;DHT22;1938;50.812;7.738;2022-10-24T15:51:17;16.90;99.90
3846;DHT22;1938;50.812;7.738;2022-10-24T15:53:44;16.90;99.90
3846;DHT22;1938;50.812;7.738;2022-10-24T15:56:10;16.80;99.90
3846;DHT22;1938;50.812;7.738;2022-10-24T15:58:38;16.80;99.90
3846;DHT22;1938;50.812;7.738;2022-10-24T16:01:04;16.70;99.90
3846;DHT22;1938;50.812;7.738;2022-10-24T16:03:31;16.70;99.90
3846;DHT22;1938;50.812;7.738;2022-10-24T16:05:57;16.60;99.90
3846;DHT22;1938;50.812;7.738;2022-10-24T16:08:24;16.60;99.90
3846;DHT22;1938;50.812;7.738;2022-10-24T16:10:51;16.60;99.90
3846;DHT22;1938;50.812;7.738;2022-10-24T16:13:20;16.50;99.90
3846;DHT22;1938;50.812;7.738;2022-10-24T16:15:47;16.50;99.90
3846;DHT22;1938;50.812;7.738;2022-10-24T16:18:13;16.50;99.90
3846;DHT22;1938;50.812;7.738;2022-10-24T16:20:39;16.40;99.90
3846;DHT22;1938;50.812;7.738;2022-10-24T16:23:07;16.40;99.90
3846;DHT22;1938;50.812;7.738;2022-10-24T16:25:34;16.30;99.90
3846;DHT22;1938;50.812;7.738;2022-10-24T16:28:01;16.40;99.90
3846;DHT22;1938;50.812;7.738;2022-10-24T16:30:31;16.30;99.90
3846;DHT22;1938;50.812;7.738;2022-10-24T16:32:57;16.30;99.90
3846;DHT22;1938;50.812;7.738;2022-10-24T16:35:25;16.20;99.90
3846;DHT22;1938;50.812;7.738;2022-10-24T16:37:52;16.20;1.00
3846;DHT22;1938;50.812;7.738;2022-10-24T16:40:19;16.20;1.00
3846;DHT22;1938;50.812;7.738;2022-10-24T16:42:49;16.20;1.00
3846;DHT22;1938;50.812;7.738;2022-10-24T16:45:15;16.10;1.00
3846;DHT22;1938;50.812;7.738;2022-10-24T16:47:41;16.10;1.00
3846;DHT22;1938;50.812;7.738;2022-10-24T16:50:11;16.10;1.00
3846;DHT22;1938;50.812;7.738;2022-10-24T16:52:36;16.10;1.00
3846;DHT22;1938;50.812;7.738;2022-10-24T16:55:02;16.10;1.00
3846;DHT22;1938;50.812;7.738;2022-10-24T16:57:28;16.10;1.00
3846;DHT22;1938;50.812;7.738;2022-10-24T16:59:53;16.10;1.00
3846;DHT22;1938;50.812;7.738;2022-10-24T17:02:19;16.00;1.00
3846;DHT22;1938;50.812;7.738;2022-10-24T17:04:44;16.00;1.00
3846;DHT22;1938;50.812;7.738;2022-10-24T17:07:11;16.00;1.00
3846;DHT22;1938;50.812;7.738;2022-10-24T17:09:38;16.00;1.00
3846;DHT22;1938;50.812;7.738;2022-10-24T17:12:04;16.00;1.00
3846;DHT22;1938;50.812;7.738;2022-10-24T17:14:32;15.90;1.00
3846;DHT22;1938;50.812;7.738;2022-10-24T17:16:57;16.00;1.00
3846;DHT22;1938;50.812;7.738;2022-10-24T17:19:24;15.90;1.00
3846;DHT22;1938;50.812;7.738;2022-10-24T17:21:50;15.90;1.00
3846;DHT22;1938;50.812;7.738;2022-10-24T17:24:19;16.00;1.00
3846;DHT22;1938;50.812;7.738;2022-10-24T17:26:47;16.00;1.00
3846;DHT22;1938;50.812;7.738;2022-10-24T17:29:25;16.00;1.00
3846;DHT22;1938;50.812;7.738;2022-10-24T17:31:53;15.90;1.00
3846;DHT22;1938;50.812;7.738;2022-10-24T17:34:19;15.90;1.00
3846;DHT22;1938;50.812;7.738;2022-10-24T17:36:53;15.90;1.00
3846;DHT22;1938;50.812;7.738;2022-10-24T17:39:49;15.90;1.00
3846;DHT22;1938;50.812;7.738;2022-10-24T17:42:15;15.90;1.00
3846;DHT22;1938;50.812;7.738;2022-10-24T17:44:40;15.90;1.00
3846;DHT22;1938;50.812;7.738;2022-10-24T17:47:06;15.90;1.00
3846;DHT22;1938;50.812;7.738;2022-10-24T17:49:32;15.90;1.00
3846;DHT22;1938;50.812;7.738;2022-10-24T17:51:57;15.80;1.00
3846;DHT22;1938;50.812;7.738;2022-10-24T17:54:23;15.80;1.00
3846;DHT22;1938;50.812;7.738;2022-10-24T17:56:49;15.80;1.00
3846;DHT22;1938;50.812;7.738;2022-10-24T17:59:14;15.80;1.00
3846;DHT22;1938;50.812;7.738;2022-10-24T18:01:40;15.80;1.00
3846;DHT22;1938;50.812;7.738;2022-10-24T18:04:06;15.80;1.00
3846;DHT22;1938;50.812;7.738;2022-10-24T18:06:32;15.70;1.00
3846;DHT22;1938;50.812;7.738;2022-10-24T18:08:58;15.70;5.40
3846;DHT22;1938;50.812;7.738;2022-10-24T18:11:24;15.70;5.50
3846;DHT22;1938;50.812;7.738;2022-10-24T18:13:49;15.70;19.70
3846;DHT22;1938;50.812;7.738;2022-10-24T18:16:16;15.60;26.90
3846;DHT22;1938;50.812;7.738;2022-10-24T18:18:43;15.60;44.90
3846;DHT22;1938;50.812;7.738;2022-10-24T18:21:28;15.60;54.00
3846;DHT22;1938;50.812;7.738;2022-10-24T18:23:54;15.60;53.20
3846;DHT22;1938;50.812;7.738;2022-10-24T18:26:24;15.50;86.40
3846;DHT22;1938;50.812;7.738;2022-10-24T18:28:51;15.50;99.90
3846;DHT22;1938;50.812;7.738;2022-10-24T18:31:22;15.50;99.90
3846;DHT22;1938;50.812;7.738;2022-10-24T18:33:48;15.50;99.90
3846;DHT22;1938;50.812;7.738;2022-10-24T18:36:23;15.40;99.90
3846;DHT22;1938;50.812;7.738;2022-10-24T18:38:52;15.40;99.90
3846;DHT22;1938;50.812;7.738;2022-10-24T18:43:44;15.40;99.90